sensor_id;sensor_type;location;lat;lon;timestamp;P1;durP1;ratioP1;P2;durP2;ratioP2
43998;SDS011;51319;52.162;5.302;2022-10-31T00:00:55;24.10;;;11.73;;
43998;SDS011;51319;52.162;5.302;2022-10-31T00:03:22;27.05;;;11.50;;
43998;SDS011;51319;52.162;5.302;2022-10-31T00:05:57;22.58;;;13.05;;
43998;SDS011;51319;52.162;5.302;2022-10-31T00:08:23;26.92;;;12.25;;
43998;SDS011;51319;52.162;5.302;2022-10-31T00:10:49;31.35;;;12.88;;
43998;SDS011;51319;52.162;5.302;2022-10-31T00:13:15;35.67;;;14.75;;
43998;SDS011;51319;52.162;5.302;2022-10-31T00:15:42;24.55;;;13.05;;
43998;SDS011;51319;52.162;5.302;2022-10-31T00:18:08;22.75;;;13.15;;
43998;SDS011;51319;52.162;5.302;2022-10-31T00:20:36;21.15;;;13.65;;
43998;SDS011;51319;52.162;5.302;2022-10-31T00:23:03;25.15;;;13.32;;
43998;SDS011;51319;52.162;5.302;2022-10-31T00:25:33;26.40;;;13.60;;
43998;SDS011;51319;52.162;5.302;2022-10-31T00:28:01;28.70;;;12.93;;
43998;SDS011;51319;52.162;5.302;2022-10-31T00:30:29;27.77;;;13.15;;
43998;SDS011;51319;52.162;5.302;2022-10-31T00:32:55;24.52;;;13.07;;
43998;SDS011;51319;52.162;5.302;2022-10-31T00:35:22;24.92;;;13.05;;
43998;SDS011;51319;52.162;5.302;2022-10-31T00:37:48;25.58;;;13.70;;
43998;SDS011;51319;52.162;5.302;2022-10-31T00:40:14;19.13;;;12.93;;
43998;SDS011;51319;52.162;5.302;2022-10-31T00:42:43;26.92;;;12.65;;
43998;SDS011;51319;52.162;5.302;2022-10-31T00:45:10;23.40;;;14.00;;
43998;SDS011;51319;52.162;5.302;2022-10-31T00:47:36;23.35;;;13.48;;
43998;SDS011;51319;52.162;5.302;2022-10-31T00:50:03;31.65;;;13.93;;
43998;SDS011;51319;52.162;5.302;2022-10-31T00:52:31;31.42;;;14.45;;
43998;SDS011;51319;52.162;5.302;2022-10-31T00:54:57;22.42;;;12.70;;
43998;SDS011;51319;52.162;5.302;2022-10-31T00:57:23;25.65;;;13.55;;
43998;SDS011;51319;52.162;5.302;2022-10-31T00:59:49;29.60;;;13.77;;
43998;SDS011;51319;52.162;5.302;2022-10-31T01:02:15;26.13;;;13.25;;
43998;SDS011;51319;52.162;5.302;2022-10-31T01:04:42;24.00;;;13.23;;
43998;SDS011;51319;52.162;5.302;2022-10-31T01:07:08;25.55;;;13.27;;
43998;SDS011;51319;52.162;5.302;2022-10-31T01:09:36;25.48;;;12.77;;
43998;SDS011;51319;52.162;5.302;2022-10-31T01:12:02;27.40;;;13.90;;
43998;SDS011;51319;52.162;5.302;2022-10-31T01:14:29;22.48;;;12.95;;
43998;SDS011;51319;52.162;5.302;2022-10-31T01:16:55;27.33;;;13.63;;
43998;SDS011;51319;52.162;5.302;2022-10-31T01:19:21;28.33;;;14.20;;
43998;SDS011;51319;52.162;5.302;2022-10-31T01:21:47;31.92;;;13.95;;
43998;SDS011;51319;52.162;5.302;2022-10-31T01:24:13;22.08;;;13.45;;
43998;SDS011;51319;52.162;5.302;2022-10-31T01:26:39;23.73;;;12.70;;
43998;SDS011;51319;52.162;5.302;2022-10-31T01:29:06;26.40;;;13.88;;
43998;SDS011;51319;52.162;5.302;2022-10-31T01:31:34;24.30;;;14.15;;
43998;SDS011;51319;52.162;5.302;2022-10-31T01:34:01;23.08;;;12.93;;
43998;SDS011;51319;52.162;5.302;2022-10-31T01:36:29;25.52;;;13.43;;
43998;SDS011;51319;52.162;5.302;2022-10-31T01:39:01;32.20;;;14.82;;
43998;SDS011;51319;52.162;5.302;2022-10-31T01:41:33;28.17;;;13.85;;
43998;SDS011;51319;52.162;5.302;2022-10-31T01:49:30;24.50;;;13.32;;
43998;SDS011;51319;52.162;5.302;2022-10-31T01:52:04;19.88;;;13.23;;
43998;SDS011;51319;52.162;5.302;2022-10-31T01:54:36;32.13;;;14.52;;
43998;SDS011;51319;52.162;5.302;2022-10-31T01:57:08;24.13;;;12.77;;
43998;SDS011;51319;52.162;5.302;2022-10-31T01:59:39;23.33;;;12.57;;
43998;SDS011;51319;52.162;5.302;2022-10-31T02:02:09;26.40;;;12.75;;
43998;SDS011;51319;52.162;5.302;2022-10-31T02:04:37;25.15;;;13.15;;
43998;SDS011;51319;52.162;5.302;2022-10-31T02:07:07;24.42;;;12.45;;
43998;SDS011;51319;52.162;5.302;2022-10-31T02:09:39;26.50;;;13.48;;
43998;SDS011;51319;52.162;5.302;2022-10-31T02:12:06;25.55;;;12.73;;
43998;SDS011;51319;52.162;5.302;2022-10-31T02:14:35;26.15;;;13.15;;
43998;SDS011;51319;52.162;5.302;2022-10-31T02:17:04;24.95;;;13.40;;
43998;SDS011;51319;52.162;5.302;2022-10-31T02:19:32;22.05;;;11.95;;
43998;SDS011;51319;52.162;5.302;2022-10-31T02:27:25;21.88;;;12.45;;
43998;SDS011;51319;52.162;5.302;2022-10-31T02:32:35;25.02;;;12.82;;
43998;SDS011;51319;52.162;5.302;2022-10-31T02:41:04;25.98;;;12.90;;
43998;SDS011;51319;52.162;5.302;2022-10-31T02:49:12;20.73;;;12.75;;
43998;SDS011;51319;52.162;5.302;2022-10-31T02:52:12;26.30;;;13.43;;
43998;SDS011;51319;52.162;5.302;2022-10-31T02:55:08;23.30;;;13.27;;
43998;SDS011;51319;52.162;5.302;2022-10-31T02:57:51;20.80;;;11.75;;
43998;SDS011;51319;52.162;5.302;2022-10-31T03:00:20;24.52;;;12.82;;
43998;SDS011;51319;52.162;5.302;2022-10-31T03:02:59;17.55;;;12.52;;
43998;SDS011;51319;52.162;5.302;2022-10-31T03:16:06;22.00;;;12.43;;
43998;SDS011;51319;52.162;5.302;2022-10-31T03:18:47;24.40;;;12.57;;
43998;SDS011;51319;52.162;5.302;2022-10-31T03:21:25;20.92;;;12.90;;
43998;SDS011;51319;52.162;5.302;2022-10-31T03:23:53;19.88;;;12.77;;
43998;SDS011;51319;52.162;5.302;2022-10-31T03:26:22;24.17;;;12.43;;
43998;SDS011;51319;52.162;5.302;2022-10-31T03:28:52;21.33;;;12.27;;
43998;SDS011;51319;52.162;5.302;2022-10-31T03:31:41;19.33;;;11.18;;
43998;SDS011;51319;52.162;5.302;2022-10-31T03:34:21;30.77;;;13.60;;
43998;SDS011;51319;52.162;5.302;2022-10-31T03:36:49;27.23;;;14.00;;
43998;SDS011;51319;52.162;5.302;2022-10-31T03:39:18;25.20;;;13.32;;
43998;SDS011;51319;52.162;5.302;2022-10-31T03:41:52;23.48;;;13.57;;
43998;SDS011;51319;52.162;5.302;2022-10-31T03:44:28;30.65;;;13.20;;
43998;SDS011;51319;52.162;5.302;2022-10-31T03:46:57;22.52;;;12.85;;
43998;SDS011;51319;52.162;5.302;2022-10-31T03:49:23;25.23;;;14.55;;
43998;SDS011;51319;52.162;5.302;2022-10-31T03:51:55;36.10;;;13.50;;
43998;SDS011;51319;52.162;5.302;2022-10-31T03:57:33;27.92;;;13.65;;
43998;SDS011;51319;52.162;5.302;2022-10-31T04:02:33;31.88;;;13.82;;
43998;SDS011;51319;52.162;5.302;2022-10-31T04:05:04;29.83;;;13.98;;
43998;SDS011;51319;52.162;5.302;2022-10-31T04:07:32;25.85;;;13.65;;
43998;SDS011;51319;52.162;5.302;2022-10-31T04:10:04;23.27;;;13.02;;
43998;SDS011;51319;52.162;5.302;2022-10-31T04:12:35;24.88;;;13.38;;
43998;SDS011;51319;52.162;5.302;2022-10-31T04:15:03;26.75;;;13.38;;
43998;SDS011;51319;52.162;5.302;2022-10-31T04:17:32;25.88;;;13.15;;
43998;SDS011;51319;52.162;5.302;2022-10-31T04:20:02;19.92;;;12.20;;
43998;SDS011;51319;52.162;5.302;2022-10-31T04:22:28;24.80;;;14.35;;
43998;SDS011;51319;52.162;5.302;2022-10-31T04:24:55;28.65;;;14.73;;
43998;SDS011;51319;52.162;5.302;2022-10-31T04:27:21;29.20;;;14.25;;
43998;SDS011;51319;52.162;5.302;2022-10-31T04:29:47;26.05;;;14.15;;
43998;SDS011;51319;52.162;5.302;2022-10-31T04:32:16;30.85;;;14.32;;
43998;SDS011;51319;52.162;5.302;2022-10-31T04:34:43;25.33;;;15.70;;
43998;SDS011;51319;52.162;5.302;2022-10-31T04:37:09;28.98;;;16.98;;
43998;SDS011;51319;52.162;5.302;2022-10-31T04:39:35;31.55;;;16.70;;
43998;SDS011;51319;52.162;5.302;2022-10-31T04:42:01;28.13;;;15.23;;
43998;SDS011;51319;52.162;5.302;2022-10-31T04:44:27;33.63;;;16.63;;
43998;SDS011;51319;52.162;5.302;2022-10-31T04:46:53;28.83;;;15.52;;
43998;SDS011;51319;52.162;5.302;2022-10-31T04:49:19;33.42;;;15.75;;
43998;SDS011;51319;52.162;5.302;2022-10-31T04:51:45;34.28;;;15.27;;
43998;SDS011;51319;52.162;5.302;2022-10-31T04:54:11;30.20;;;15.02;;
43998;SDS011;51319;52.162;5.302;2022-10-31T04:56:37;30.42;;;15.25;;
43998;SDS011;51319;52.162;5.302;2022-10-31T04:59:03;29.63;;;15.23;;
43998;SDS011;51319;52.162;5.302;2022-10-31T05:01:29;29.65;;;15.18;;
43998;SDS011;51319;52.162;5.302;2022-10-31T05:03:56;27.75;;;16.15;;
43998;SDS011;51319;52.162;5.302;2022-10-31T05:06:22;31.13;;;15.90;;
43998;SDS011;51319;52.162;5.302;2022-10-31T05:08:48;28.67;;;15.80;;
43998;SDS011;51319;52.162;5.302;2022-10-31T05:11:14;28.77;;;15.57;;
43998;SDS011;51319;52.162;5.302;2022-10-31T05:13:40;29.00;;;15.30;;
43998;SDS011;51319;52.162;5.302;2022-10-31T05:16:06;30.67;;;16.05;;
43998;SDS011;51319;52.162;5.302;2022-10-31T05:18:32;30.25;;;15.98;;
43998;SDS011;51319;52.162;5.302;2022-10-31T05:20:58;27.05;;;14.40;;
43998;SDS011;51319;52.162;5.302;2022-10-31T05:23:24;28.30;;;15.70;;
43998;SDS011;51319;52.162;5.302;2022-10-31T05:25:50;27.90;;;15.77;;
43998;SDS011;51319;52.162;5.302;2022-10-31T05:28:17;33.20;;;15.52;;
43998;SDS011;51319;52.162;5.302;2022-10-31T05:30:43;33.20;;;16.38;;
43998;SDS011;51319;52.162;5.302;2022-10-31T05:33:09;37.08;;;15.73;;
43998;SDS011;51319;52.162;5.302;2022-10-31T05:35:35;27.77;;;15.30;;
43998;SDS011;51319;52.162;5.302;2022-10-31T05:38:01;29.92;;;15.95;;
43998;SDS011;51319;52.162;5.302;2022-10-31T05:40:27;28.27;;;16.67;;
43998;SDS011;51319;52.162;5.302;2022-10-31T05:42:54;27.20;;;15.60;;
43998;SDS011;51319;52.162;5.302;2022-10-31T05:45:22;30.73;;;14.95;;
43998;SDS011;51319;52.162;5.302;2022-10-31T05:47:52;35.50;;;16.45;;
43998;SDS011;51319;52.162;5.302;2022-10-31T05:50:20;30.17;;;16.25;;
43998;SDS011;51319;52.162;5.302;2022-10-31T05:52:46;33.00;;;16.48;;
43998;SDS011;51319;52.162;5.302;2022-10-31T05:55:13;27.95;;;15.55;;
43998;SDS011;51319;52.162;5.302;2022-10-31T05:57:39;32.70;;;15.65;;
43998;SDS011;51319;52.162;5.302;2022-10-31T06:00:05;26.75;;;15.80;;
43998;SDS011;51319;52.162;5.302;2022-10-31T06:02:32;29.35;;;16.33;;
43998;SDS011;51319;52.162;5.302;2022-10-31T06:05:00;30.00;;;16.13;;
43998;SDS011;51319;52.162;5.302;2022-10-31T06:07:26;29.38;;;16.52;;
43998;SDS011;51319;52.162;5.302;2022-10-31T06:09:56;30.48;;;16.60;;
43998;SDS011;51319;52.162;5.302;2022-10-31T06:12:23;31.02;;;15.75;;
43998;SDS011;51319;52.162;5.302;2022-10-31T06:14:50;29.58;;;15.38;;
43998;SDS011;51319;52.162;5.302;2022-10-31T06:17:16;30.05;;;16.33;;
43998;SDS011;51319;52.162;5.302;2022-10-31T06:19:42;31.27;;;16.65;;
43998;SDS011;51319;52.162;5.302;2022-10-31T06:22:08;32.10;;;16.88;;
43998;SDS011;51319;52.162;5.302;2022-10-31T06:24:36;29.13;;;15.38;;
43998;SDS011;51319;52.162;5.302;2022-10-31T06:27:04;28.25;;;16.58;;
43998;SDS011;51319;52.162;5.302;2022-10-31T06:29:30;36.45;;;18.63;;
43998;SDS011;51319;52.162;5.302;2022-10-31T06:31:57;33.95;;;18.52;;
43998;SDS011;51319;52.162;5.302;2022-10-31T06:34:23;30.75;;;17.85;;
43998;SDS011;51319;52.162;5.302;2022-10-31T06:36:49;32.40;;;19.00;;
43998;SDS011;51319;52.162;5.302;2022-10-31T06:39:15;39.30;;;18.52;;
43998;SDS011;51319;52.162;5.302;2022-10-31T06:41:42;38.00;;;18.15;;
43998;SDS011;51319;52.162;5.302;2022-10-31T06:44:08;37.95;;;20.50;;
43998;SDS011;51319;52.162;5.302;2022-10-31T06:46:34;39.42;;;19.50;;
43998;SDS011;51319;52.162;5.302;2022-10-31T06:49:00;39.22;;;19.98;;
43998;SDS011;51319;52.162;5.302;2022-10-31T06:51:26;43.65;;;20.33;;
43998;SDS011;51319;52.162;5.302;2022-10-31T06:53:52;37.92;;;20.92;;
43998;SDS011;51319;52.162;5.302;2022-10-31T06:56:20;37.47;;;20.15;;
43998;SDS011;51319;52.162;5.302;2022-10-31T06:58:47;37.13;;;19.65;;
43998;SDS011;51319;52.162;5.302;2022-10-31T07:01:13;35.83;;;20.10;;
43998;SDS011;51319;52.162;5.302;2022-10-31T07:03:39;34.08;;;19.70;;
43998;SDS011;51319;52.162;5.302;2022-10-31T07:06:05;34.85;;;19.13;;
43998;SDS011;51319;52.162;5.302;2022-10-31T07:08:31;40.05;;;22.20;;
43998;SDS011;51319;52.162;5.302;2022-10-31T07:10:57;40.75;;;21.10;;
43998;SDS011;51319;52.162;5.302;2022-10-31T07:13:24;41.25;;;21.38;;
43998;SDS011;51319;52.162;5.302;2022-10-31T07:15:51;39.50;;;22.45;;
43998;SDS011;51319;52.162;5.302;2022-10-31T07:18:19;46.55;;;23.83;;
43998;SDS011;51319;52.162;5.302;2022-10-31T07:20:45;34.17;;;20.23;;
43998;SDS011;51319;52.162;5.302;2022-10-31T07:23:12;98.97;;;54.80;;
43998;SDS011;51319;52.162;5.302;2022-10-31T07:25:38;44.25;;;24.95;;
43998;SDS011;51319;52.162;5.302;2022-10-31T07:28:05;37.63;;;20.38;;
43998;SDS011;51319;52.162;5.302;2022-10-31T07:30:32;42.15;;;21.63;;
43998;SDS011;51319;52.162;5.302;2022-10-31T07:32:58;42.97;;;22.92;;
43998;SDS011;51319;52.162;5.302;2022-10-31T07:35:25;41.58;;;23.10;;
43998;SDS011;51319;52.162;5.302;2022-10-31T07:37:53;44.47;;;24.13;;
43998;SDS011;51319;52.162;5.302;2022-10-31T07:40:20;43.97;;;22.88;;
43998;SDS011;51319;52.162;5.302;2022-10-31T07:42:48;43.13;;;23.73;;
43998;SDS011;51319;52.162;5.302;2022-10-31T07:45:16;42.35;;;23.10;;
43998;SDS011;51319;52.162;5.302;2022-10-31T07:47:44;46.58;;;25.55;;
43998;SDS011;51319;52.162;5.302;2022-10-31T07:50:13;50.08;;;28.52;;
43998;SDS011;51319;52.162;5.302;2022-10-31T07:52:41;54.40;;;27.48;;
43998;SDS011;51319;52.162;5.302;2022-10-31T07:55:07;47.08;;;25.63;;
43998;SDS011;51319;52.162;5.302;2022-10-31T07:57:34;41.50;;;24.40;;
43998;SDS011;51319;52.162;5.302;2022-10-31T08:00:00;45.65;;;25.50;;
43998;SDS011;51319;52.162;5.302;2022-10-31T08:02:26;48.13;;;25.58;;
43998;SDS011;51319;52.162;5.302;2022-10-31T08:04:54;54.25;;;26.70;;
43998;SDS011;51319;52.162;5.302;2022-10-31T08:07:26;45.72;;;26.17;;
43998;SDS011;51319;52.162;5.302;2022-10-31T08:09:52;42.58;;;25.27;;
43998;SDS011;51319;52.162;5.302;2022-10-31T08:12:18;48.53;;;27.10;;
43998;SDS011;51319;52.162;5.302;2022-10-31T08:14:45;47.85;;;25.95;;
43998;SDS011;51319;52.162;5.302;2022-10-31T08:17:11;46.55;;;25.38;;
43998;SDS011;51319;52.162;5.302;2022-10-31T08:19:37;37.72;;;24.17;;
43998;SDS011;51319;52.162;5.302;2022-10-31T08:22:03;34.78;;;22.63;;
43998;SDS011;51319;52.162;5.302;2022-10-31T08:24:29;39.15;;;22.30;;
43998;SDS011;51319;52.162;5.302;2022-10-31T08:26:55;30.38;;;19.17;;
43998;SDS011;51319;52.162;5.302;2022-10-31T08:29:21;29.30;;;18.95;;
43998;SDS011;51319;52.162;5.302;2022-10-31T08:31:47;29.98;;;18.35;;
43998;SDS011;51319;52.162;5.302;2022-10-31T08:34:14;25.15;;;16.55;;
43998;SDS011;51319;52.162;5.302;2022-10-31T08:36:40;25.80;;;16.58;;
43998;SDS011;51319;52.162;5.302;2022-10-31T08:39:08;24.90;;;17.80;;
43998;SDS011;51319;52.162;5.302;2022-10-31T08:41:34;28.83;;;18.02;;
43998;SDS011;51319;52.162;5.302;2022-10-31T08:44:00;29.25;;;18.42;;
43998;SDS011;51319;52.162;5.302;2022-10-31T08:46:26;28.92;;;18.55;;
43998;SDS011;51319;52.162;5.302;2022-10-31T08:48:53;33.92;;;19.67;;
43998;SDS011;51319;52.162;5.302;2022-10-31T08:51:19;42.55;;;22.90;;
43998;SDS011;51319;52.162;5.302;2022-10-31T08:53:45;36.38;;;23.00;;
43998;SDS011;51319;52.162;5.302;2022-10-31T08:56:11;38.65;;;23.55;;
43998;SDS011;51319;52.162;5.302;2022-10-31T08:58:37;38.08;;;22.40;;
43998;SDS011;51319;52.162;5.302;2022-10-31T09:01:05;36.78;;;23.20;;
43998;SDS011;51319;52.162;5.302;2022-10-31T09:03:31;41.30;;;23.23;;
43998;SDS011;51319;52.162;5.302;2022-10-31T09:05:58;39.03;;;23.65;;
43998;SDS011;51319;52.162;5.302;2022-10-31T09:08:26;44.65;;;23.08;;
43998;SDS011;51319;52.162;5.302;2022-10-31T09:10:57;35.53;;;23.55;;
43998;SDS011;51319;52.162;5.302;2022-10-31T09:13:24;38.85;;;23.63;;
43998;SDS011;51319;52.162;5.302;2022-10-31T09:15:53;36.55;;;22.80;;
43998;SDS011;51319;52.162;5.302;2022-10-31T09:18:21;37.17;;;22.15;;
43998;SDS011;51319;52.162;5.302;2022-10-31T09:20:48;33.70;;;22.98;;
43998;SDS011;51319;52.162;5.302;2022-10-31T09:25:42;32.80;;;20.77;;
43998;SDS011;51319;52.162;5.302;2022-10-31T09:28:16;36.03;;;22.38;;
43998;SDS011;51319;52.162;5.302;2022-10-31T09:30:46;34.95;;;21.08;;
43998;SDS011;51319;52.162;5.302;2022-10-31T09:33:14;26.25;;;18.38;;
43998;SDS011;51319;52.162;5.302;2022-10-31T09:35:40;31.08;;;18.08;;
43998;SDS011;51319;52.162;5.302;2022-10-31T09:38:11;24.98;;;17.83;;
43998;SDS011;51319;52.162;5.302;2022-10-31T09:40:41;27.17;;;16.45;;
43998;SDS011;51319;52.162;5.302;2022-10-31T09:49:12;30.05;;;15.45;;
43998;SDS011;51319;52.162;5.302;2022-10-31T09:52:11;20.48;;;13.27;;
43998;SDS011;51319;52.162;5.302;2022-10-31T09:55:02;27.38;;;15.20;;
43998;SDS011;51319;52.162;5.302;2022-10-31T09:57:34;21.15;;;14.52;;
43998;SDS011;51319;52.162;5.302;2022-10-31T10:00:06;27.25;;;15.80;;
43998;SDS011;51319;52.162;5.302;2022-10-31T10:02:57;23.05;;;14.85;;
43998;SDS011;51319;52.162;5.302;2022-10-31T10:05:44;24.77;;;16.08;;
43998;SDS011;51319;52.162;5.302;2022-10-31T10:08:18;23.50;;;15.10;;
43998;SDS011;51319;52.162;5.302;2022-10-31T10:10:48;21.85;;;14.15;;
43998;SDS011;51319;52.162;5.302;2022-10-31T10:13:30;22.45;;;15.65;;
43998;SDS011;51319;52.162;5.302;2022-10-31T10:18:34;27.27;;;15.45;;
43998;SDS011;51319;52.162;5.302;2022-10-31T10:32:25;26.10;;;14.32;;
43998;SDS011;51319;52.162;5.302;2022-10-31T10:34:55;20.63;;;13.65;;
43998;SDS011;51319;52.162;5.302;2022-10-31T10:37:43;17.83;;;12.60;;
43998;SDS011;51319;52.162;5.302;2022-10-31T10:40:17;21.52;;;14.27;;
43998;SDS011;51319;52.162;5.302;2022-10-31T10:52:10;25.92;;;14.55;;
43998;SDS011;51319;52.162;5.302;2022-10-31T10:55:19;21.25;;;14.95;;
43998;SDS011;51319;52.162;5.302;2022-10-31T10:58:10;22.02;;;13.82;;
43998;SDS011;51319;52.162;5.302;2022-10-31T11:00:44;21.15;;;14.52;;
43998;SDS011;51319;52.162;5.302;2022-10-31T11:03:13;22.60;;;14.13;;
43998;SDS011;51319;52.162;5.302;2022-10-31T11:05:41;22.08;;;13.60;;
43998;SDS011;51319;52.162;5.302;2022-10-31T11:10:59;22.73;;;15.25;;
43998;SDS011;51319;52.162;5.302;2022-10-31T11:13:32;27.33;;;16.02;;
43998;SDS011;51319;52.162;5.302;2022-10-31T11:16:02;21.95;;;16.45;;
43998;SDS011;51319;52.162;5.302;2022-10-31T11:18:34;21.88;;;15.70;;
43998;SDS011;51319;52.162;5.302;2022-10-31T11:21:09;34.80;;;22.05;;
43998;SDS011;51319;52.162;5.302;2022-10-31T11:27:02;33.75;;;14.07;;
43998;SDS011;51319;52.162;5.302;2022-10-31T11:29:39;26.67;;;14.30;;
43998;SDS011;51319;52.162;5.302;2022-10-31T11:32:08;22.75;;;13.40;;
43998;SDS011;51319;52.162;5.302;2022-10-31T11:34:46;20.80;;;13.40;;
43998;SDS011;51319;52.162;5.302;2022-10-31T11:37:27;26.13;;;13.23;;
43998;SDS011;51319;52.162;5.302;2022-10-31T11:39:56;22.13;;;13.98;;
43998;SDS011;51319;52.162;5.302;2022-10-31T11:42:28;23.67;;;12.70;;
43998;SDS011;51319;52.162;5.302;2022-10-31T11:45:04;32.08;;;15.73;;
43998;SDS011;51319;52.162;5.302;2022-10-31T11:47:41;25.48;;;15.18;;
43998;SDS011;51319;52.162;5.302;2022-10-31T11:50:18;26.80;;;15.77;;
43998;SDS011;51319;52.162;5.302;2022-10-31T11:52:47;22.83;;;14.75;;
43998;SDS011;51319;52.162;5.302;2022-10-31T11:55:15;26.05;;;17.05;;
43998;SDS011;51319;52.162;5.302;2022-10-31T11:57:54;30.77;;;17.33;;
43998;SDS011;51319;52.162;5.302;2022-10-31T12:02:50;30.92;;;18.13;;
43998;SDS011;51319;52.162;5.302;2022-10-31T12:05:29;35.75;;;19.60;;
43998;SDS011;51319;52.162;5.302;2022-10-31T12:07:59;39.30;;;21.60;;
43998;SDS011;51319;52.162;5.302;2022-10-31T12:10:43;30.67;;;19.63;;
43998;SDS011;51319;52.162;5.302;2022-10-31T12:13:34;37.53;;;21.55;;
43998;SDS011;51319;52.162;5.302;2022-10-31T12:19:09;47.75;;;20.80;;
43998;SDS011;51319;52.162;5.302;2022-10-31T12:22:17;35.05;;;20.02;;
43998;SDS011;51319;52.162;5.302;2022-10-31T12:31:03;44.17;;;23.23;;
43998;SDS011;51319;52.162;5.302;2022-10-31T12:33:44;44.08;;;23.60;;
43998;SDS011;51319;52.162;5.302;2022-10-31T13:01:12;38.95;;;23.30;;
43998;SDS011;51319;52.162;5.302;2022-10-31T13:04:03;42.92;;;23.08;;
43998;SDS011;51319;52.162;5.302;2022-10-31T13:06:45;50.28;;;25.05;;
43998;SDS011;51319;52.162;5.302;2022-10-31T13:09:19;42.65;;;24.30;;
43998;SDS011;51319;52.162;5.302;2022-10-31T13:11:58;43.95;;;25.33;;
43998;SDS011;51319;52.162;5.302;2022-10-31T13:14:37;43.38;;;24.00;;
43998;SDS011;51319;52.162;5.302;2022-10-31T13:17:09;46.95;;;23.98;;
43998;SDS011;51319;52.162;5.302;2022-10-31T13:20:14;52.17;;;22.52;;
43998;SDS011;51319;52.162;5.302;2022-10-31T13:22:47;44.83;;;23.92;;
43998;SDS011;51319;52.162;5.302;2022-10-31T13:25:28;45.80;;;24.05;;
43998;SDS011;51319;52.162;5.302;2022-10-31T13:30:32;46.33;;;25.20;;
43998;SDS011;51319;52.162;5.302;2022-10-31T13:33:09;42.70;;;23.10;;
43998;SDS011;51319;52.162;5.302;2022-10-31T13:35:51;46.28;;;25.73;;
43998;SDS011;51319;52.162;5.302;2022-10-31T13:38:35;51.40;;;28.63;;
43998;SDS011;51319;52.162;5.302;2022-10-31T13:41:11;45.10;;;23.77;;
43998;SDS011;51319;52.162;5.302;2022-10-31T13:43:53;39.08;;;23.50;;
43998;SDS011;51319;52.162;5.302;2022-10-31T13:46:45;35.03;;;21.90;;
43998;SDS011;51319;52.162;5.302;2022-10-31T13:54:35;40.88;;;21.63;;
43998;SDS011;51319;52.162;5.302;2022-10-31T13:57:07;38.65;;;22.60;;
43998;SDS011;51319;52.162;5.302;2022-10-31T13:59:48;37.67;;;21.15;;
43998;SDS011;51319;52.162;5.302;2022-10-31T14:02:23;42.05;;;22.05;;
43998;SDS011;51319;52.162;5.302;2022-10-31T14:04:57;37.95;;;22.20;;
43998;SDS011;51319;52.162;5.302;2022-10-31T14:07:30;45.85;;;22.73;;
43998;SDS011;51319;52.162;5.302;2022-10-31T14:10:04;41.10;;;23.30;;
43998;SDS011;51319;52.162;5.302;2022-10-31T14:13:07;45.05;;;25.13;;
43998;SDS011;51319;52.162;5.302;2022-10-31T14:15:53;49.05;;;25.58;;
43998;SDS011;51319;52.162;5.302;2022-10-31T14:18:30;55.40;;;28.27;;
43998;SDS011;51319;52.162;5.302;2022-10-31T14:20:57;49.30;;;26.02;;
43998;SDS011;51319;52.162;5.302;2022-10-31T14:28:54;47.53;;;24.95;;
43998;SDS011;51319;52.162;5.302;2022-10-31T14:31:29;43.88;;;24.88;;
43998;SDS011;51319;52.162;5.302;2022-10-31T14:33:58;42.45;;;23.80;;
43998;SDS011;51319;52.162;5.302;2022-10-31T14:37:01;51.60;;;24.67;;
43998;SDS011;51319;52.162;5.302;2022-10-31T14:48:29;46.28;;;24.73;;
43998;SDS011;51319;52.162;5.302;2022-10-31T14:50:59;55.45;;;26.30;;
43998;SDS011;51319;52.162;5.302;2022-10-31T14:56:17;62.20;;;28.60;;
43998;SDS011;51319;52.162;5.302;2022-10-31T14:58:50;54.38;;;28.40;;
43998;SDS011;51319;52.162;5.302;2022-10-31T15:01:19;47.60;;;28.17;;
43998;SDS011;51319;52.162;5.302;2022-10-31T15:04:13;52.05;;;27.33;;
43998;SDS011;51319;52.162;5.302;2022-10-31T15:06:51;53.78;;;27.63;;
43998;SDS011;51319;52.162;5.302;2022-10-31T15:09:39;52.90;;;27.58;;
43998;SDS011;51319;52.162;5.302;2022-10-31T15:14:51;57.65;;;28.73;;
43998;SDS011;51319;52.162;5.302;2022-10-31T15:17:25;50.00;;;29.08;;
43998;SDS011;51319;52.162;5.302;2022-10-31T15:19:52;63.38;;;30.90;;
43998;SDS011;51319;52.162;5.302;2022-10-31T15:22:19;64.53;;;34.25;;
43998;SDS011;51319;52.162;5.302;2022-10-31T15:24:55;77.85;;;41.42;;
43998;SDS011;51319;52.162;5.302;2022-10-31T15:27:21;71.72;;;34.75;;
43998;SDS011;51319;52.162;5.302;2022-10-31T15:29:57;64.68;;;32.17;;
43998;SDS011;51319;52.162;5.302;2022-10-31T15:32:24;76.35;;;41.20;;
43998;SDS011;51319;52.162;5.302;2022-10-31T15:34:54;57.88;;;30.98;;
43998;SDS011;51319;52.162;5.302;2022-10-31T15:37:22;60.58;;;32.63;;
43998;SDS011;51319;52.162;5.302;2022-10-31T15:39:50;65.43;;;30.80;;
43998;SDS011;51319;52.162;5.302;2022-10-31T15:42:26;50.17;;;29.17;;
43998;SDS011;51319;52.162;5.302;2022-10-31T15:47:34;56.45;;;30.10;;
43998;SDS011;51319;52.162;5.302;2022-10-31T15:50:02;61.90;;;32.38;;
43998;SDS011;51319;52.162;5.302;2022-10-31T15:52:44;61.80;;;34.38;;
43998;SDS011;51319;52.162;5.302;2022-10-31T15:55:19;64.97;;;34.70;;
43998;SDS011;51319;52.162;5.302;2022-10-31T15:57:48;53.05;;;25.73;;
43998;SDS011;51319;52.162;5.302;2022-10-31T16:00:28;52.58;;;27.65;;
43998;SDS011;51319;52.162;5.302;2022-10-31T16:05:45;49.40;;;25.58;;
43998;SDS011;51319;52.162;5.302;2022-10-31T16:10:55;50.88;;;25.98;;
43998;SDS011;51319;52.162;5.302;2022-10-31T16:13:28;50.45;;;24.95;;
43998;SDS011;51319;52.162;5.302;2022-10-31T16:15:59;47.13;;;25.38;;
43998;SDS011;51319;52.162;5.302;2022-10-31T16:19:03;51.65;;;29.23;;
43998;SDS011;51319;52.162;5.302;2022-10-31T16:21:32;50.58;;;24.63;;
43998;SDS011;51319;52.162;5.302;2022-10-31T16:24:03;47.25;;;24.27;;
43998;SDS011;51319;52.162;5.302;2022-10-31T16:26:39;42.55;;;23.35;;
43998;SDS011;51319;52.162;5.302;2022-10-31T16:29:22;52.53;;;24.17;;
43998;SDS011;51319;52.162;5.302;2022-10-31T16:32:30;53.50;;;24.15;;
43998;SDS011;51319;52.162;5.302;2022-10-31T16:37:41;54.08;;;25.90;;
43998;SDS011;51319;52.162;5.302;2022-10-31T16:40:09;57.28;;;25.90;;
43998;SDS011;51319;52.162;5.302;2022-10-31T16:42:39;67.57;;;37.08;;
43998;SDS011;51319;52.162;5.302;2022-10-31T16:45:06;61.25;;;28.75;;
43998;SDS011;51319;52.162;5.302;2022-10-31T16:47:33;70.22;;;36.58;;
43998;SDS011;51319;52.162;5.302;2022-10-31T16:49:59;56.65;;;28.35;;
43998;SDS011;51319;52.162;5.302;2022-10-31T16:52:26;70.32;;;39.47;;
43998;SDS011;51319;52.162;5.302;2022-10-31T16:54:54;58.85;;;33.00;;
43998;SDS011;51319;52.162;5.302;2022-10-31T16:57:31;60.33;;;29.88;;
43998;SDS011;51319;52.162;5.302;2022-10-31T16:59:57;63.67;;;31.73;;
43998;SDS011;51319;52.162;5.302;2022-10-31T17:02:23;71.00;;;38.22;;
43998;SDS011;51319;52.162;5.302;2022-10-31T17:04:52;80.53;;;46.20;;
43998;SDS011;51319;52.162;5.302;2022-10-31T17:07:22;55.58;;;30.00;;
43998;SDS011;51319;52.162;5.302;2022-10-31T17:09:48;58.13;;;30.38;;
43998;SDS011;51319;52.162;5.302;2022-10-31T17:12:15;57.13;;;33.15;;
43998;SDS011;51319;52.162;5.302;2022-10-31T17:14:45;57.15;;;30.13;;
43998;SDS011;51319;52.162;5.302;2022-10-31T17:17:14;52.53;;;30.85;;